Time;durP1;ratioP1;P1;durP2;ratioP2;P2;SDS_P1;SDS_P2;PMS_P1;PMS_P2;Temp;Humidity;BMP_temperature;BMP_pressure;BME280_temperature;BME280_humidity;BME280_pressure;Samples;Min_cycle;Max_cycle;Signal;HPM_P1;HPM_P2
2023/01/19 00:01:17;;;;;;;2.57;2.30;;;;;;;;;;6289554;28;20304;-81
2023/01/19 00:04:22;;;;;;;4.47;2.67;;;;;;;;;;6288977;28;20301;-81
2023/01/19 00:07:27;;;;;;;4.97;2.60;;;;;;;;;;6289368;28;20275;-79
2023/01/19 00:10:32;;;;;;;3.03;2.10;;;;;;;;;;6280594;28;20294;-80
2023/01/19 00:13:38;;;;;;;3.60;2.20;;;;;;;;;;6264402;28;20343;-80
2023/01/19 00:16:45;;;;;;;2.53;2.40;;;;;;;;;;6264200;28;20271;-82
2023/01/19 00:19:50;;;;;;;2.20;2.10;;;;;;;;;;6264157;28;20299;-80
2023/01/19 00:22:55;;;;;;;2.40;2.20;;;;;;;;;;6264317;28;20470;-81
2023/01/19 00:26:01;;;;;;;2.73;2.30;;;;;;;;;;6264403;28;20274;-81
2023/01/19 00:29:07;;;;;;;3.50;2.30;;;;;;;;;;6264129;28;20298;-80
2023/01/19 00:32:16;;;;;;;3.97;2.40;;;;;;;;;;6264186;28;20266;-81
2023/01/19 00:35:21;;;;;;;4.60;2.27;;;;;;;;;;6263431;28;20471;-80
2023/01/19 00:38:26;;;;;;;3.30;2.13;;;;;;;;;;6263173;28;20296;-80
2023/01/19 00:44:54;;;;;;;5.23;1.90;;;;;;;;;;6262841;28;20325;-79
2023/01/19 00:48:01;;;;;;;2.20;2.10;;;;;;;;;;6262921;28;20290;-81
2023/01/19 00:51:06;;;;;;;4.13;2.00;;;;;;;;;;6229661;28;20280;-82
2023/01/19 00:54:14;;;;;;;3.33;2.23;;;;;;;;;;6263002;28;20290;-82
2023/01/19 00:57:20;;;;;;;3.33;2.40;;;;;;;;;;6263657;28;20287;-80
2023/01/19 01:00:25;;;;;;;3.23;2.30;;;;;;;;;;6263329;28;20613;-81
2023/01/19 01:03:32;;;;;;;2.60;2.10;;;;;;;;;;6262142;28;20312;-82
2023/01/19 01:06:37;;;;;;;2.20;2.10;;;;;;;;;;6229161;28;20283;-82
2023/01/19 01:09:43;;;;;;;4.67;2.50;;;;;;;;;;6263009;28;20304;-81
2023/01/19 01:12:49;;;;;;;3.30;2.43;;;;;;;;;;6262321;28;20429;-81
2023/01/19 01:16:01;;;;;;;3.33;2.00;;;;;;;;;;6263499;28;20268;-81
2023/01/19 01:19:08;;;;;;;3.83;2.50;;;;;;;;;;6262635;28;20311;-80
2023/01/19 01:22:14;;;;;;;2.40;2.27;;;;;;;;;;6262818;28;20279;-79
2023/01/19 01:25:21;;;;;;;3.33;2.17;;;;;;;;;;6262317;28;20305;-80
2023/01/19 01:28:27;;;;;;;2.30;2.20;;;;;;;;;;6262759;28;20295;-80
2023/01/19 01:31:32;;;;;;;2.50;2.20;;;;;;;;;;6262533;28;20443;-81
2023/01/19 01:34:39;;;;;;;3.07;2.10;;;;;;;;;;6261652;28;20299;-81
2023/01/19 01:37:44;;;;;;;3.67;2.33;;;;;;;;;;6261239;28;20282;-80
2023/01/19 01:40:49;;;;;;;2.20;2.00;;;;;;;;;;6262606;28;20288;-81
2023/01/19 01:43:57;;;;;;;2.60;2.00;;;;;;;;;;6261939;28;20564;-79
2023/01/19 01:47:02;;;;;;;3.23;2.00;;;;;;;;;;6262225;28;20276;-81
2023/01/19 01:50:14;;;;;;;2.37;1.80;;;;;;;;;;6260645;28;20309;-79
2023/01/19 01:53:20;;;;;;;5.53;2.23;;;;;;;;;;6261077;28;20286;-80
2023/01/19 01:56:27;;;;;;;3.40;1.87;;;;;;;;;;6261965;28;20268;-81
2023/01/19 01:59:37;;;;;;;2.40;2.20;;;;;;;;;;6260066;28;20308;-81
2023/01/19 02:02:53;;;;;;;2.80;2.10;;;;;;;;;;6277109;28;20315;-81
2023/01/19 02:06:03;;;;;;;3.90;1.83;;;;;;;;;;6286448;28;20275;-80
2023/01/19 02:15:56;;;;;;;4.77;2.00;;;;;;;;;;6237463;28;20275;-81
2023/01/19 02:19:02;;;;;;;2.90;1.90;;;;;;;;;;6261254;28;20309;-82
2023/01/19 02:22:11;;;;;;;2.57;2.03;;;;;;;;;;6243706;28;20568;-80
2023/01/19 02:25:19;;;;;;;4.63;2.00;;;;;;;;;;6260465;28;20479;-81
2023/01/19 02:28:25;;;;;;;2.00;1.77;;;;;;;;;;6261818;28;20322;-80
2023/01/19 02:31:32;;;;;;;4.43;2.03;;;;;;;;;;6261346;28;20280;-80
2023/01/19 02:34:37;;;;;;;3.13;2.03;;;;;;;;;;6227560;28;20334;-81
2023/01/19 02:37:44;;;;;;;2.73;1.93;;;;;;;;;;6261336;28;20282;-81
2023/01/19 02:40:51;;;;;;;2.17;1.93;;;;;;;;;;6261223;28;20303;-81
2023/01/19 02:43:58;;;;;;;2.10;1.70;;;;;;;;;;6260088;28;20297;-81
2023/01/19 02:47:04;;;;;;;6.97;2.10;;;;;;;;;;6261282;28;20365;-81
2023/01/19 02:50:48;;;;;;;4.37;2.17;;;;;;;;;;6260830;28;20300;-81
2023/01/19 02:54:03;;;;;;;1.60;1.60;;;;;;;;;;6208914;28;20314;-81
2023/01/19 02:57:31;;;;;;;4.00;2.00;;;;;;;;;;6209525;28;20583;-80
2023/01/19 03:00:44;;;;;;;6.13;1.90;;;;;;;;;;6208257;28;20295;-80
2023/01/19 03:03:54;;;;;;;4.00;2.00;;;;;;;;;;6208718;28;20289;-80
2023/01/19 03:07:06;;;;;;;1.80;1.77;;;;;;;;;;6209177;28;20501;-79
2023/01/19 03:10:17;;;;;;;1.87;1.60;;;;;;;;;;6214216;28;20301;-80
2023/01/19 03:13:30;;;;;;;2.93;2.03;;;;;;;;;;6233492;28;20301;-79
2023/01/19 03:16:39;;;;;;;1.57;1.53;;;;;;;;;;6233937;28;20303;-80
2023/01/19 03:19:46;;;;;;;2.27;2.13;;;;;;;;;;6217077;28;20569;-80
2023/01/19 03:22:55;;;;;;;1.70;1.70;;;;;;;;;;6233430;28;20311;-81
2023/01/19 03:26:01;;;;;;;3.47;2.20;;;;;;;;;;6260506;28;20416;-80
2023/01/19 03:29:10;;;;;;;3.53;2.10;;;;;;;;;;6242783;28;20300;-81
2023/01/19 03:32:17;;;;;;;4.10;2.00;;;;;;;;;;6261010;28;20272;-80
2023/01/19 03:35:24;;;;;;;2.97;2.27;;;;;;;;;;6258788;28;20303;-80
2023/01/19 03:38:33;;;;;;;2.67;1.87;;;;;;;;;;6260550;28;20287;-80
2023/01/19 03:41:40;;;;;;;2.93;1.73;;;;;;;;;;6246145;28;20299;-80
2023/01/19 03:44:50;;;;;;;5.87;1.93;;;;;;;;;;6264063;28;20295;-80
2023/01/19 03:47:56;;;;;;;1.60;1.60;;;;;;;;;;6262848;28;20302;-79
2023/01/19 03:51:04;;;;;;;2.10;1.90;;;;;;;;;;6260792;28;20277;-79
2023/01/19 03:54:11;;;;;;;2.13;1.97;;;;;;;;;;6259958;28;20293;-79
2023/01/19 03:57:17;;;;;;;1.90;1.80;;;;;;;;;;6259330;28;20440;-81
2023/01/19 04:00:26;;;;;;;2.20;1.87;;;;;;;;;;6252708;28;20303;-80
2023/01/19 04:03:32;;;;;;;1.90;1.80;;;;;;;;;;6252284;28;20585;-82
2023/01/19 04:06:37;;;;;;;3.60;1.80;;;;;;;;;;6259756;28;20226;-81
2023/01/19 04:09:42;;;;;;;1.70;1.60;;;;;;;;;;6259270;28;20277;-82
2023/01/19 04:12:48;;;;;;;3.70;2.07;;;;;;;;;;6250168;28;20222;-80
2023/01/19 04:16:00;;;;;;;6.30;1.80;;;;;;;;;;6235320;28;20258;-81
2023/01/19 04:19:05;;;;;;;3.17;1.70;;;;;;;;;;6262008;28;20251;-79
2023/01/19 04:22:11;;;;;;;1.77;1.77;;;;;;;;;;6280785;28;20251;-80
2023/01/19 04:25:17;;;;;;;4.63;1.87;;;;;;;;;;6277249;28;20262;-81
2023/01/19 04:28:22;;;;;;;2.10;1.90;;;;;;;;;;6266691;28;20294;-80
2023/01/19 04:31:30;;;;;;;3.30;2.00;;;;;;;;;;6265419;28;20276;-81
2023/01/19 04:34:35;;;;;;;2.00;1.90;;;;;;;;;;6247843;28;20299;-80
2023/01/19 04:37:40;;;;;;;2.80;1.80;;;;;;;;;;6243982;28;20265;-80
2023/01/19 04:40:45;;;;;;;4.27;2.13;;;;;;;;;;6221916;28;20286;-80
2023/01/19 04:43:50;;;;;;;3.20;1.90;;;;;;;;;;6239126;28;20301;-80
2023/01/19 04:46:57;;;;;;;1.93;1.60;;;;;;;;;;6221508;28;20269;-80
2023/01/19 04:50:04;;;;;;;4.73;2.00;;;;;;;;;;6238563;28;20291;-81
2023/01/19 04:53:09;;;;;;;2.43;2.17;;;;;;;;;;6238837;28;20301;-81
2023/01/19 04:56:14;;;;;;;3.00;2.20;;;;;;;;;;6239293;28;20279;-81
2023/01/19 04:59:20;;;;;;;6.63;2.10;;;;;;;;;;6238655;28;20300;-81
2023/01/19 05:02:26;;;;;;;2.00;1.87;;;;;;;;;;6234053;28;20487;-81
2023/01/19 05:05:33;;;;;;;2.43;1.83;;;;;;;;;;6244765;28;20294;-81
2023/01/19 05:08:40;;;;;;;6.33;2.10;;;;;;;;;;6246122;28;20308;-81
2023/01/19 05:11:47;;;;;;;2.20;2.10;;;;;;;;;;6275179;28;20272;-80
2023/01/19 05:14:52;;;;;;;2.60;1.80;;;;;;;;;;6297874;28;20297;-78
2023/01/19 05:17:59;;;;;;;4.43;2.30;;;;;;;;;;6303254;28;20246;-80
2023/01/19 05:21:04;;;;;;;3.87;2.20;;;;;;;;;;6303312;28;20281;-81
2023/01/19 05:24:14;;;;;;;5.70;2.13;;;;;;;;;;6285595;28;20297;-80
2023/01/19 05:27:19;;;;;;;7.30;2.33;;;;;;;;;;6295389;28;20442;-79
2023/01/19 05:30:24;;;;;;;3.50;2.30;;;;;;;;;;6295122;28;20259;-79
2023/01/19 05:33:31;;;;;;;3.93;2.10;;;;;;;;;;6290616;28;20298;-81
2023/01/19 05:36:36;;;;;;;2.30;2.10;;;;;;;;;;6287563;28;20267;-81
2023/01/19 05:39:41;;;;;;;4.40;2.03;;;;;;;;;;6287526;28;20303;-82
2023/01/19 05:42:47;;;;;;;5.83;2.20;;;;;;;;;;6287392;28;20287;-80
2023/01/19 05:45:52;;;;;;;8.10;2.23;;;;;;;;;;6287852;28;20288;-81
2023/01/19 05:49:00;;;;;;;5.10;2.23;;;;;;;;;;6269767;28;20298;-82
2023/01/19 05:52:05;;;;;;;2.00;1.90;;;;;;;;;;6287483;28;20278;-81
2023/01/19 05:55:13;;;;;;;2.93;2.20;;;;;;;;;;6286878;28;20300;-80
2023/01/19 05:58:19;;;;;;;2.17;2.10;;;;;;;;;;6269721;28;20295;-81
2023/01/19 06:01:25;;;;;;;6.10;2.30;;;;;;;;;;6279148;28;20450;-81
2023/01/19 06:04:35;;;;;;;3.23;2.43;;;;;;;;;;6286364;28;20488;-81
2023/01/19 06:07:41;;;;;;;4.20;2.10;;;;;;;;;;6286174;28;20267;-81
2023/01/19 06:10:46;;;;;;;4.93;2.53;;;;;;;;;;6276296;28;20265;-82
2023/01/19 06:13:52;;;;;;;4.37;2.33;;;;;;;;;;6261574;28;20316;-81
2023/01/19 06:16:57;;;;;;;4.17;1.90;;;;;;;;;;6261159;28;20378;-80
2023/01/19 06:20:06;;;;;;;8.07;2.50;;;;;;;;;;6244835;28;20307;-79
2023/01/19 06:23:14;;;;;;;2.60;2.20;;;;;;;;;;6260485;28;20296;-79
2023/01/19 06:26:19;;;;;;;5.43;2.40;;;;;;;;;;6260795;28;20564;-79
2023/01/19 06:29:25;;;;;;;4.20;2.30;;;;;;;;;;6261156;28;20252;-81
2023/01/19 06:32:33;;;;;;;3.03;2.70;;;;;;;;;;6261934;28;20440;-80
2023/01/19 06:35:42;;;;;;;2.70;2.50;;;;;;;;;;6260803;28;20283;-81
2023/01/19 06:38:47;;;;;;;3.77;2.40;;;;;;;;;;6261154;28;20300;-78
2023/01/19 06:41:52;;;;;;;5.90;2.40;;;;;;;;;;6260928;28;20283;-80
2023/01/19 06:44:57;;;;;;;7.57;2.70;;;;;;;;;;6262216;28;20295;-78
2023/01/19 06:48:03;;;;;;;7.53;2.63;;;;;;;;;;6260742;28;20294;-78
2023/01/19 06:51:09;;;;;;;2.93;2.50;;;;;;;;;;6261395;28;20283;-79
2023/01/19 06:54:15;;;;;;;3.13;2.50;;;;;;;;;;6259922;28;20303;-81
2023/01/19 06:57:20;;;;;;;5.13;2.60;;;;;;;;;;6261738;28;20292;-80
2023/01/19 07:00:27;;;;;;;4.40;2.73;;;;;;;;;;6260567;28;20621;-80
2023/01/19 07:03:33;;;;;;;3.43;2.77;;;;;;;;;;6282281;28;20485;-82
2023/01/19 07:06:40;;;;;;;3.33;2.40;;;;;;;;;;6286945;28;20271;-81
2023/01/19 07:09:47;;;;;;;6.03;2.57;;;;;;;;;;6268294;28;20627;-81
2023/01/19 07:12:53;;;;;;;2.90;2.70;;;;;;;;;;6267746;28;20456;-81
2023/01/19 07:15:59;;;;;;;3.33;3.10;;;;;;;;;;6285883;28;20279;-81
2023/01/19 07:19:06;;;;;;;5.80;2.87;;;;;;;;;;6285628;28;20321;-81
2023/01/19 07:22:12;;;;;;;2.57;2.57;;;;;;;;;;6285718;28;20429;-82
2023/01/19 07:25:19;;;;;;;2.90;2.80;;;;;;;;;;6286199;28;20318;-81
2023/01/19 07:28:28;;;;;;;3.87;2.87;;;;;;;;;;6289320;28;20288;-81
2023/01/19 07:31:33;;;;;;;3.10;2.90;;;;;;;;;;6289407;28;20591;-82
2023/01/19 07:34:38;;;;;;;3.20;2.90;;;;;;;;;;6286602;28;20294;-80
2023/01/19 07:37:44;;;;;;;5.60;2.97;;;;;;;;;;6285275;28;20291;-81
2023/01/19 07:40:50;;;;;;;3.30;3.00;;;;;;;;;;6285554;28;20288;-82
2023/01/19 07:43:55;;;;;;;4.93;2.97;;;;;;;;;;6285283;28;20294;-81
2023/01/19 07:47:00;;;;;;;9.10;3.30;;;;;;;;;;6285508;28;20554;-79
2023/01/19 07:50:06;;;;;;;7.43;3.63;;;;;;;;;;6284895;28;20610;-82
2023/01/19 07:53:18;;;;;;;6.17;3.30;;;;;;;;;;6270745;28;20294;-80
2023/01/19 07:56:26;;;;;;;3.27;3.17;;;;;;;;;;6272742;28;20274;-82
2023/01/19 07:59:31;;;;;;;8.00;3.53;;;;;;;;;;6289621;28;20293;-80
2023/01/19 08:02:37;;;;;;;4.03;3.10;;;;;;;;;;6289483;28;20306;-80
2023/01/19 08:05:45;;;;;;;6.30;3.60;;;;;;;;;;6290201;28;20269;-80
2023/01/19 08:08:53;;;;;;;3.90;3.20;;;;;;;;;;6289059;28;20300;-81
2023/01/19 08:11:59;;;;;;;4.90;3.47;;;;;;;;;;6289370;28;20366;-80
2023/01/19 08:15:06;;;;;;;5.50;3.17;;;;;;;;;;6288968;28;20614;-80
2023/01/19 08:18:15;;;;;;;3.43;3.23;;;;;;;;;;6290416;28;20598;-81
2023/01/19 08:21:20;;;;;;;4.30;3.40;;;;;;;;;;6289142;28;20282;-80
2023/01/19 08:24:27;;;;;;;3.57;3.37;;;;;;;;;;6289187;28;20301;-81
2023/01/19 08:27:33;;;;;;;4.03;3.30;;;;;;;;;;6289987;28;20280;-81
2023/01/19 08:30:38;;;;;;;3.40;3.10;;;;;;;;;;6288341;28;20266;-81
2023/01/19 08:33:44;;;;;;;3.53;3.20;;;;;;;;;;6288267;28;20295;-81
2023/01/19 08:36:49;;;;;;;5.70;3.70;;;;;;;;;;6289154;28;20282;-80
2023/01/19 08:39:55;;;;;;;3.53;3.43;;;;;;;;;;6288668;28;20291;-81
2023/01/19 08:43:02;;;;;;;5.87;3.20;;;;;;;;;;6288938;28;20304;-82
2023/01/19 08:46:11;;;;;;;5.43;3.30;;;;;;;;;;6289414;28;20266;-80
2023/01/19 08:49:17;;;;;;;3.60;3.40;;;;;;;;;;6288628;28;20305;-80
2023/01/19 08:52:23;;;;;;;3.33;3.13;;;;;;;;;;6288931;28;20276;-81
2023/01/19 08:55:30;;;;;;;5.33;3.10;;;;;;;;;;6288360;28;20322;-81
2023/01/19 08:58:36;;;;;;;4.30;3.30;;;;;;;;;;6287592;28;20547;-81
2023/01/19 09:01:42;;;;;;;5.67;3.23;;;;;;;;;;6288542;28;20294;-80
2023/01/19 09:04:49;;;;;;;3.10;2.97;;;;;;;;;;6286964;28;20410;-81
2023/01/19 09:07:54;;;;;;;4.37;3.13;;;;;;;;;;6288212;28;20423;-81
2023/01/19 09:11:00;;;;;;;3.93;3.20;;;;;;;;;;6288196;28;20520;-81
2023/01/19 09:14:05;;;;;;;4.20;3.40;;;;;;;;;;6287618;28;20295;-81
2023/01/19 09:17:13;;;;;;;7.20;3.70;;;;;;;;;;6270482;28;20265;-81
2023/01/19 09:20:19;;;;;;;5.57;3.50;;;;;;;;;;6279128;28;20488;-80
2023/01/19 09:23:24;;;;;;;3.77;3.47;;;;;;;;;;6288007;28;20313;-82
2023/01/19 09:26:32;;;;;;;7.10;3.63;;;;;;;;;;6270548;28;20335;-81
2023/01/19 09:29:38;;;;;;;6.23;3.30;;;;;;;;;;6287648;28;20311;-80
2023/01/19 09:32:43;;;;;;;3.20;3.00;;;;;;;;;;6269407;28;20269;-81
2023/01/19 09:35:50;;;;;;;4.47;3.10;;;;;;;;;;6287688;28;20271;-81
2023/01/19 09:38:56;;;;;;;3.60;3.33;;;;;;;;;;6287327;28;20298;-82
2023/01/19 09:42:12;;;;;;;4.73;3.40;;;;;;;;;;6287459;28;20271;-82
2023/01/19 09:45:22;;;;;;;4.37;2.93;;;;;;;;;;6267655;28;20299;-81
2023/01/19 09:48:33;;;;;;;3.13;2.93;;;;;;;;;;6287344;28;20284;-81
2023/01/19 09:51:41;;;;;;;3.43;3.13;;;;;;;;;;6288950;28;20277;-81
2023/01/19 10:02:20;;;;;;;3.87;3.63;;;;;;;;;;6205510;28;20276;-91
2023/01/19 10:05:44;;;;;;;7.77;3.70;;;;;;;;;;6227624;28;20314;-92
2023/01/19 10:09:02;;;;;;;5.07;3.43;;;;;;;;;;6215168;28;20297;-90
2023/01/19 10:12:15;;;;;;;4.80;3.40;;;;;;;;;;6201836;28;20268;-93
2023/01/19 10:19:20;;;;;;;4.73;3.10;;;;;;;;;;6214434;28;20294;-93
2023/01/19 10:22:30;;;;;;;3.50;3.20;;;;;;;;;;6235722;28;20236;-92
2023/01/19 10:29:05;;;;;;;5.10;3.37;;;;;;;;;;6225532;28;20346;-93
2023/01/19 10:35:46;;;;;;;6.63;3.43;;;;;;;;;;6258957;28;20226;-92
2023/01/19 10:42:17;;;;;;;6.60;3.00;;;;;;;;;;6243756;28;20239;-90
2023/01/19 10:45:37;;;;;;;3.47;3.13;;;;;;;;;;6259820;28;20245;-87
2023/01/19 10:49:19;;;;;;;5.90;3.10;;;;;;;;;;6259087;28;20249;-89
2023/01/19 10:52:36;;;;;;;4.27;3.20;;;;;;;;;;6252857;28;20264;-93
2023/01/19 10:55:49;;;;;;;3.70;3.13;;;;;;;;;;6248155;28;20510;-91
2023/01/19 11:06:31;;;;;;;3.30;3.00;;;;;;;;;;6248331;23;20307;-80
2023/01/19 11:09:37;;;;;;;3.20;3.00;;;;;;;;;;6236180;28;20305;-82
2023/01/19 11:12:46;;;;;;;3.60;3.00;;;;;;;;;;6236085;28;20267;-81
2023/01/19 11:15:56;;;;;;;6.33;3.50;;;;;;;;;;6236620;28;20271;-82
2023/01/19 11:19:02;;;;;;;3.23;3.03;;;;;;;;;;6235874;28;20298;-82
2023/01/19 11:22:21;;;;;;;4.27;3.27;;;;;;;;;;6235352;28;20272;-82
2023/01/19 11:25:29;;;;;;;6.37;3.40;;;;;;;;;;6234429;28;20301;-82
2023/01/19 11:28:36;;;;;;;7.23;3.43;;;;;;;;;;6243353;28;20294;-82
2023/01/19 11:31:42;;;;;;;7.57;3.50;;;;;;;;;;6244161;28;20266;-81
2023/01/19 11:34:47;;;;;;;3.40;2.83;;;;;;;;;;6242452;28;20472;-81
2023/01/19 11:38:06;;;;;;;4.67;3.07;;;;;;;;;;6243595;28;20266;-81
2023/01/19 11:41:18;;;;;;;5.43;3.50;;;;;;;;;;6244294;28;20285;-81
2023/01/19 11:44:25;;;;;;;3.20;3.10;;;;;;;;;;6244008;28;20309;-82
2023/01/19 11:47:36;;;;;;;3.90;3.10;;;;;;;;;;6226494;28;20271;-81
2023/01/19 11:50:42;;;;;;;3.93;3.10;;;;;;;;;;6243330;28;20272;-81
2023/01/19 11:53:52;;;;;;;14.03;7.30;;;;;;;;;;6243593;28;20304;-82
2023/01/19 11:57:00;;;;;;;12.50;5.73;;;;;;;;;;6244267;28;20273;-82
2023/01/19 12:00:27;;;;;;;9.20;3.93;;;;;;;;;;6243768;28;20369;-81
2023/01/19 12:03:37;;;;;;;3.27;3.07;;;;;;;;;;6243832;28;20296;-81
2023/01/19 12:06:46;;;;;;;7.23;3.20;;;;;;;;;;6243969;28;20621;-82
2023/01/19 12:09:55;;;;;;;6.47;3.47;;;;;;;;;;6255667;28;20306;-82
2023/01/19 12:13:01;;;;;;;5.27;3.40;;;;;;;;;;6217971;28;20304;-82
2023/01/19 12:16:09;;;;;;;3.67;3.20;;;;;;;;;;6219831;28;20270;-81
2023/01/19 12:19:17;;;;;;;5.03;3.10;;;;;;;;;;6219348;28;20297;-81
2023/01/19 12:22:27;;;;;;;3.13;3.00;;;;;;;;;;6219964;28;20262;-81
2023/01/19 12:25:45;;;;;;;4.90;3.13;;;;;;;;;;6219116;28;20484;-82
2023/01/19 12:28:52;;;;;;;4.50;3.23;;;;;;;;;;6220148;28;20292;-80
2023/01/19 12:32:19;;;;;;;3.20;3.10;;;;;;;;;;6244468;28;20277;-82
2023/01/19 12:35:57;;;;;;;3.37;3.13;;;;;;;;;;6243490;28;20313;-80
2023/01/19 12:39:03;;;;;;;4.37;3.70;;;;;;;;;;6241887;28;20292;-81
2023/01/19 12:42:16;;;;;;;4.40;3.97;;;;;;;;;;6223582;28;20280;-81
2023/01/19 12:45:24;;;;;;;4.20;4.00;;;;;;;;;;6239691;28;20470;-81
2023/01/19 12:48:33;;;;;;;6.70;4.30;;;;;;;;;;6238428;28;20292;-82
2023/01/19 12:51:39;;;;;;;5.20;4.57;;;;;;;;;;6242571;28;20280;-81
2023/01/19 12:54:52;;;;;;;4.93;4.23;;;;;;;;;;6243053;28;20294;-81
2023/01/19 12:58:02;;;;;;;8.40;4.30;;;;;;;;;;6239621;28;20286;-81
2023/01/19 13:01:15;;;;;;;7.13;4.50;;;;;;;;;;6239967;28;20278;-80
2023/01/19 13:04:31;;;;;;;4.40;4.10;;;;;;;;;;6238888;28;20304;-80
2023/01/19 13:08:10;;;;;;;5.67;4.00;;;;;;;;;;6239151;28;20307;-82
2023/01/19 13:11:20;;;;;;;4.50;4.10;;;;;;;;;;6228643;28;20282;-81
2023/01/19 13:14:40;;;;;;;10.50;3.60;;;;;;;;;;6214386;28;20304;-81
2023/01/19 13:17:49;;;;;;;3.83;3.53;;;;;;;;;;6214703;28;20281;-81
2023/01/19 13:20:58;;;;;;;12.10;3.70;;;;;;;;;;6213722;28;20271;-81
2023/01/19 13:24:05;;;;;;;7.67;3.70;;;;;;;;;;6214243;28;20339;-81
2023/01/19 13:27:12;;;;;;;6.33;3.43;;;;;;;;;;6214370;28;20557;-81
2023/01/19 13:30:20;;;;;;;3.80;3.20;;;;;;;;;;6214343;28;20304;-81
2023/01/19 13:33:29;;;;;;;3.40;3.10;;;;;;;;;;6212720;28;20285;-81
2023/01/19 13:36:37;;;;;;;5.83;3.50;;;;;;;;;;6214462;28;20577;-81
2023/01/19 13:39:43;;;;;;;3.63;3.33;;;;;;;;;;6213547;28;20302;-81
2023/01/19 13:42:49;;;;;;;3.07;2.97;;;;;;;;;;6213487;28;20313;-81
2023/01/19 13:45:56;;;;;;;3.20;3.00;;;;;;;;;;6214087;28;20289;-81
2023/01/19 13:49:04;;;;;;;3.53;3.20;;;;;;;;;;6212672;28;20320;-80
2023/01/19 13:52:15;;;;;;;6.13;3.03;;;;;;;;;;6213630;28;20445;-80
2023/01/19 13:55:21;;;;;;;2.93;2.73;;;;;;;;;;6213178;28;20307;-80
2023/01/19 13:58:29;;;;;;;3.57;3.17;;;;;;;;;;6213120;28;20299;-81
2023/01/19 14:01:36;;;;;;;3.33;3.13;;;;;;;;;;6213814;28;20268;-81
2023/01/19 14:04:41;;;;;;;3.73;3.40;;;;;;;;;;6212836;28;20293;-81
2023/01/19 14:07:47;;;;;;;5.90;3.30;;;;;;;;;;6211292;28;20310;-80
2023/01/19 14:11:01;;;;;;;4.20;3.30;;;;;;;;;;6224443;28;20513;-81
2023/01/19 14:14:23;;;;;;;5.43;3.20;;;;;;;;;;6236872;28;20296;-81
2023/01/19 14:17:31;;;;;;;4.03;3.40;;;;;;;;;;6236374;28;20549;-81
2023/01/19 14:20:36;;;;;;;12.50;3.60;;;;;;;;;;6236070;28;20613;-81
2023/01/19 14:23:47;;;;;;;3.73;3.20;;;;;;;;;;6237293;28;20297;-80
2023/01/19 14:26:53;;;;;;;6.03;3.50;;;;;;;;;;6237341;28;20285;-81
2023/01/19 14:30:17;;;;;;;4.73;3.20;;;;;;;;;;6236906;28;20323;-81
2023/01/19 14:33:42;;;;;;;3.80;3.03;;;;;;;;;;6236776;28;20293;-81
2023/01/19 14:36:51;;;;;;;3.80;2.77;;;;;;;;;;6237904;28;20279;-81
2023/01/19 14:40:00;;;;;;;5.30;3.07;;;;;;;;;;6236774;28;20392;-82
2023/01/19 14:43:11;;;;;;;5.60;3.00;;;;;;;;;;6235959;28;20311;-81
2023/01/19 14:46:19;;;;;;;3.00;2.80;;;;;;;;;;6237265;28;20493;-81
2023/01/19 14:49:30;;;;;;;3.07;2.83;;;;;;;;;;6235679;28;20304;-82
2023/01/19 14:52:38;;;;;;;3.57;2.77;;;;;;;;;;6237638;28;20269;-81
2023/01/19 14:55:47;;;;;;;3.23;3.07;;;;;;;;;;6237703;28;20275;-80
2023/01/19 14:58:52;;;;;;;7.37;3.23;;;;;;;;;;6239199;28;20304;-81
2023/01/19 15:01:58;;;;;;;5.13;3.10;;;;;;;;;;6242262;28;20456;-79
2023/01/19 15:05:07;;;;;;;4.73;3.23;;;;;;;;;;6237274;28;20293;-78
2023/01/19 15:08:16;;;;;;;4.93;3.00;;;;;;;;;;6236585;28;20395;-78
2023/01/19 15:11:26;;;;;;;4.43;3.37;;;;;;;;;;6224389;28;20269;-79
2023/01/19 15:14:31;;;;;;;4.70;3.00;;;;;;;;;;6214644;28;20295;-78
2023/01/19 15:17:36;;;;;;;4.90;3.37;;;;;;;;;;6213459;28;20274;-80
2023/01/19 15:20:43;;;;;;;11.27;5.53;;;;;;;;;;6212645;28;20319;-80
2023/01/19 15:23:48;;;;;;;15.03;6.27;;;;;;;;;;6217329;28;20302;-79
2023/01/19 15:26:53;;;;;;;9.23;6.23;;;;;;;;;;6218232;28;20293;-81
2023/01/19 15:29:58;;;;;;;26.43;9.47;;;;;;;;;;6228209;28;20264;-82
2023/01/19 15:33:04;;;;;;;20.53;8.17;;;;;;;;;;6243854;28;20286;-80
2023/01/19 15:36:15;;;;;;;5.53;5.00;;;;;;;;;;6221879;28;20429;-82
2023/01/19 15:39:22;;;;;;;11.13;4.43;;;;;;;;;;6214066;28;20392;-81
2023/01/19 15:42:27;;;;;;;9.63;3.90;;;;;;;;;;6213508;28;20273;-80
2023/01/19 15:45:35;;;;;;;4.57;3.43;;;;;;;;;;6210367;28;20300;-82
2023/01/19 15:48:40;;;;;;;9.63;3.70;;;;;;;;;;6211105;28;20316;-82
2023/01/19 15:51:47;;;;;;;9.93;3.83;;;;;;;;;;6212047;28;20318;-81
2023/01/19 15:54:52;;;;;;;6.77;3.60;;;;;;;;;;6211381;28;20300;-81
2023/01/19 15:58:00;;;;;;;17.03;3.87;;;;;;;;;;6211217;28;20302;-81
2023/01/19 16:01:05;;;;;;;3.90;3.50;;;;;;;;;;6210390;28;20277;-81
2023/01/19 16:04:12;;;;;;;8.83;3.90;;;;;;;;;;6211256;28;20301;-81
2023/01/19 16:07:18;;;;;;;9.33;4.03;;;;;;;;;;6211614;28;20384;-81
2023/01/19 16:10:24;;;;;;;4.83;3.93;;;;;;;;;;6224075;28;20300;-80
2023/01/19 16:13:29;;;;;;;5.80;4.10;;;;;;;;;;6237364;28;20450;-81
2023/01/19 16:16:35;;;;;;;5.67;3.97;;;;;;;;;;6240944;28;20281;-81
2023/01/19 16:19:40;;;;;;;4.87;3.83;;;;;;;;;;6237813;28;20305;-82
2023/01/19 16:22:47;;;;;;;4.63;3.77;;;;;;;;;;6240125;28;20269;-83
2023/01/19 16:25:57;;;;;;;6.13;4.33;;;;;;;;;;6240260;28;20279;-81
2023/01/19 16:29:06;;;;;;;10.27;4.23;;;;;;;;;;6239751;28;20464;-81
2023/01/19 16:32:12;;;;;;;7.87;4.33;;;;;;;;;;6240138;28;20277;-82
2023/01/19 16:35:20;;;;;;;5.63;4.60;;;;;;;;;;6239827;28;20447;-82
2023/01/19 16:38:26;;;;;;;5.10;4.20;;;;;;;;;;6239724;28;20301;-82
2023/01/19 16:41:34;;;;;;;5.03;4.53;;;;;;;;;;6239837;28;20268;-81
2023/01/19 16:44:40;;;;;;;6.20;4.27;;;;;;;;;;6239862;28;20304;-82
2023/01/19 16:47:49;;;;;;;4.30;3.90;;;;;;;;;;6239804;28;20599;-82
2023/01/19 16:51:01;;;;;;;5.93;4.03;;;;;;;;;;6239994;28;20272;-81
2023/01/19 16:54:12;;;;;;;6.57;4.40;;;;;;;;;;6238026;28;20297;-81
2023/01/19 16:57:17;;;;;;;7.93;4.20;;;;;;;;;;6240769;28;20275;-83
2023/01/19 17:00:22;;;;;;;5.93;4.13;;;;;;;;;;6247174;28;20305;-81
2023/01/19 17:03:28;;;;;;;5.00;4.50;;;;;;;;;;6255551;28;20255;-82
2023/01/19 17:06:33;;;;;;;4.90;4.50;;;;;;;;;;6250296;28;20266;-82
2023/01/19 17:09:40;;;;;;;5.13;4.47;;;;;;;;;;6239792;28;20436;-81
2023/01/19 17:12:45;;;;;;;5.70;5.10;;;;;;;;;;6215864;28;20277;-81
2023/01/19 17:15:50;;;;;;;8.10;5.20;;;;;;;;;;6216306;28;20272;-82
2023/01/19 17:18:57;;;;;;;8.30;5.07;;;;;;;;;;6216020;28;20377;-82
2023/01/19 17:22:03;;;;;;;8.17;4.87;;;;;;;;;;6232405;28;20276;-82
2023/01/19 17:25:10;;;;;;;5.87;4.70;;;;;;;;;;6220021;28;20301;-82
2023/01/19 17:28:16;;;;;;;6.40;5.13;;;;;;;;;;6228834;28;20297;-82
2023/01/19 17:31:22;;;;;;;8.17;5.27;;;;;;;;;;6228149;28;20229;-81
2023/01/19 17:34:29;;;;;;;6.97;5.37;;;;;;;;;;6228332;28;20260;-82
2023/01/19 17:37:35;;;;;;;8.33;5.27;;;;;;;;;;6227384;28;20518;-80
2023/01/19 17:40:41;;;;;;;8.40;5.43;;;;;;;;;;6216603;28;20305;-80
2023/01/19 17:43:49;;;;;;;8.93;5.87;;;;;;;;;;6215111;28;20293;-85
2023/01/19 17:46:56;;;;;;;8.60;5.70;;;;;;;;;;6202698;28;20285;-87
2023/01/19 17:50:04;;;;;;;8.87;5.97;;;;;;;;;;6219059;28;20304;-84
2023/01/19 17:53:12;;;;;;;7.33;5.90;;;;;;;;;;6218702;28;20302;-86
2023/01/19 17:56:21;;;;;;;12.23;6.47;;;;;;;;;;6215258;28;20278;-87
2023/01/19 17:59:26;;;;;;;7.93;6.00;;;;;;;;;;6213952;28;20292;-86
2023/01/19 18:02:33;;;;;;;8.10;6.00;;;;;;;;;;6213211;28;20273;-85
2023/01/19 18:05:38;;;;;;;7.27;6.10;;;;;;;;;;6214488;28;20299;-83
2023/01/19 18:08:47;;;;;;;10.93;5.57;;;;;;;;;;6214609;28;20562;-85
2023/01/19 18:11:54;;;;;;;6.67;5.63;;;;;;;;;;6233480;28;20399;-83
2023/01/19 18:14:59;;;;;;;8.37;6.10;;;;;;;;;;6237710;28;20470;-83
2023/01/19 18:18:05;;;;;;;8.50;5.37;;;;;;;;;;6238910;28;20466;-86
2023/01/19 18:21:14;;;;;;;10.20;6.23;;;;;;;;;;6238530;28;20558;-86
2023/01/19 18:24:19;;;;;;;8.57;6.20;;;;;;;;;;6239192;28;20299;-86
2023/01/19 18:27:26;;;;;;;8.27;5.70;;;;;;;;;;6238265;28;20275;-86
2023/01/19 18:30:45;;;;;;;9.10;6.00;;;;;;;;;;6241030;28;20298;-86
2023/01/19 18:33:50;;;;;;;8.03;5.57;;;;;;;;;;6239000;28;20314;-86
2023/01/19 18:36:59;;;;;;;7.60;6.03;;;;;;;;;;6236120;28;20276;-81
2023/01/19 18:40:07;;;;;;;8.57;5.60;;;;;;;;;;6236739;28;20303;-83
2023/01/19 18:43:18;;;;;;;9.57;6.43;;;;;;;;;;6252734;28;20292;-80
2023/01/19 18:46:33;;;;;;;10.33;6.73;;;;;;;;;;6235323;28;20283;-82
2023/01/19 18:49:38;;;;;;;8.60;6.63;;;;;;;;;;6235431;28;20315;-78
2023/01/19 18:52:45;;;;;;;7.13;5.27;;;;;;;;;;6236268;28;20267;-80
2023/01/19 18:55:56;;;;;;;10.97;7.40;;;;;;;;;;6236634;28;20276;-81
2023/01/19 18:59:03;;;;;;;10.80;6.33;;;;;;;;;;6237537;28;20299;-80
2023/01/19 19:02:10;;;;;;;7.23;5.87;;;;;;;;;;6251878;28;20272;-81
2023/01/19 19:05:16;;;;;;;5.53;4.83;;;;;;;;;;6236472;28;20302;-81
2023/01/19 19:08:21;;;;;;;7.13;4.50;;;;;;;;;;6236003;28;20295;-80
2023/01/19 19:11:26;;;;;;;5.97;5.27;;;;;;;;;;6220939;28;20289;-80
2023/01/19 19:14:33;;;;;;;8.17;5.03;;;;;;;;;;6211603;28;20395;-82
2023/01/19 19:17:38;;;;;;;8.30;4.73;;;;;;;;;;6210167;28;20272;-78
2023/01/19 19:20:43;;;;;;;6.20;4.73;;;;;;;;;;6212123;28;20280;-80
2023/01/19 19:23:51;;;;;;;6.20;5.13;;;;;;;;;;6226927;28;20293;-81
2023/01/19 19:26:56;;;;;;;7.83;4.93;;;;;;;;;;6212085;28;20255;-80